sensor_id;sensor_type;location;lat;lon;timestamp;temperature;humidity
22008;DHT22;11168;56.976;24.168;2023-12-04T00:01:47;-5.50;99.90
22008;DHT22;11168;56.976;24.168;2023-12-04T00:04:15;-5.50;99.90
22008;DHT22;11168;56.976;24.168;2023-12-04T00:06:44;-5.60;99.90
22008;DHT22;11168;56.976;24.168;2023-12-04T00:09:12;-5.40;99.90
22008;DHT22;11168;56.976;24.168;2023-12-04T00:11:39;-5.50;99.90
22008;DHT22;11168;56.976;24.168;2023-12-04T00:14:06;-5.60;99.90
22008;DHT22;11168;56.976;24.168;2023-12-04T00:16:35;-5.60;99.90
22008;DHT22;11168;56.976;24.168;2023-12-04T00:19:02;-5.70;99.90
22008;DHT22;11168;56.976;24.168;2023-12-04T00:21:29;-5.70;99.90
22008;DHT22;11168;56.976;24.168;2023-12-04T00:23:57;-5.70;99.90
22008;DHT22;11168;56.976;24.168;2023-12-04T00:26:24;-5.70;99.90
22008;DHT22;11168;56.976;24.168;2023-12-04T00:28:51;-5.70;99.90
22008;DHT22;11168;56.976;24.168;2023-12-04T00:31:18;-5.60;99.90
22008;DHT22;11168;56.976;24.168;2023-12-04T00:33:46;-5.50;99.90
22008;DHT22;11168;56.976;24.168;2023-12-04T00:36:15;-5.40;99.90
22008;DHT22;11168;56.976;24.168;2023-12-04T00:38:42;-5.30;99.90
22008;DHT22;11168;56.976;24.168;2023-12-04T00:41:11;-5.40;99.90
22008;DHT22;11168;56.976;24.168;2023-12-04T00:43:38;-5.40;99.90
22008;DHT22;11168;56.976;24.168;2023-12-04T00:46:10;-5.40;99.90
22008;DHT22;11168;56.976;24.168;2023-12-04T00:48:37;-5.50;99.90
22008;DHT22;11168;56.976;24.168;2023-12-04T00:51:19;-5.50;99.90
22008;DHT22;11168;56.976;24.168;2023-12-04T00:53:47;-5.40;99.90
22008;DHT22;11168;56.976;24.168;2023-12-04T00:56:14;-5.30;99.90
22008;DHT22;11168;56.976;24.168;2023-12-04T00:58:43;-5.30;99.90
22008;DHT22;11168;56.976;24.168;2023-12-04T01:01:12;-5.40;99.90
22008;DHT22;11168;56.976;24.168;2023-12-04T01:03:39;-5.30;99.90
22008;DHT22;11168;56.976;24.168;2023-12-04T01:06:07;-5.50;99.90
22008;DHT22;11168;56.976;24.168;2023-12-04T01:08:37;-5.50;99.90
22008;DHT22;11168;56.976;24.168;2023-12-04T01:11:07;-5.50;99.90
22008;DHT22;11168;56.976;24.168;2023-12-04T01:13:35;-5.50;99.90
22008;DHT22;11168;56.976;24.168;2023-12-04T01:16:02;-5.50;99.90
22008;DHT22;11168;56.976;24.168;2023-12-04T01:18:29;-5.50;99.90
22008;DHT22;11168;56.976;24.168;2023-12-04T01:20:57;-5.40;99.90
22008;DHT22;11168;56.976;24.168;2023-12-04T01:23:28;-5.30;99.90
22008;DHT22;11168;56.976;24.168;2023-12-04T01:25:56;-5.30;99.90
22008;DHT22;11168;56.976;24.168;2023-12-04T01:28:25;-5.20;99.90
22008;DHT22;11168;56.976;24.168;2023-12-04T01:30:52;-5.10;99.90
22008;DHT22;11168;56.976;24.168;2023-12-04T01:33:19;-5.10;99.90
22008;DHT22;11168;56.976;24.168;2023-12-04T01:35:46;-5.10;99.90
22008;DHT22;11168;56.976;24.168;2023-12-04T01:38:13;-5.10;99.90
22008;DHT22;11168;56.976;24.168;2023-12-04T01:40:40;-5.00;99.90
22008;DHT22;11168;56.976;24.168;2023-12-04T01:43:07;-4.90;99.90
22008;DHT22;11168;56.976;24.168;2023-12-04T01:45:34;-5.00;99.90
22008;DHT22;11168;56.976;24.168;2023-12-04T01:48:03;-4.90;99.90
22008;DHT22;11168;56.976;24.168;2023-12-04T01:50:30;-4.90;99.90
22008;DHT22;11168;56.976;24.168;2023-12-04T01:52:57;-4.90;99.90
22008;DHT22;11168;56.976;24.168;2023-12-04T01:55:24;-4.90;99.90
22008;DHT22;11168;56.976;24.168;2023-12-04T01:57:52;-4.90;99.90
22008;DHT22;11168;56.976;24.168;2023-12-04T02:00:20;-4.90;99.90
22008;DHT22;11168;56.976;24.168;2023-12-04T02:02:48;-4.90;99.90
22008;DHT22;11168;56.976;24.168;2023-12-04T02:05:16;-4.90;99.90
22008;DHT22;11168;56.976;24.168;2023-12-04T02:07:43;-5.00;99.90
22008;DHT22;11168;56.976;24.168;2023-12-04T02:10:13;-4.90;99.90
22008;DHT22;11168;56.976;24.168;2023-12-04T02:12:41;-5.00;99.90
22008;DHT22;11168;56.976;24.168;2023-12-04T02:15:08;-5.00;99.90
22008;DHT22;11168;56.976;24.168;2023-12-04T02:17:36;-5.10;99.90
22008;DHT22;11168;56.976;24.168;2023-12-04T02:20:04;-5.10;99.90
22008;DHT22;11168;56.976;24.168;2023-12-04T02:22:32;-5.00;99.90
22008;DHT22;11168;56.976;24.168;2023-12-04T02:25:00;-5.00;99.90
22008;DHT22;11168;56.976;24.168;2023-12-04T02:27:29;-5.00;99.90
22008;DHT22;11168;56.976;24.168;2023-12-04T02:30:00;-5.00;99.90
22008;DHT22;11168;56.976;24.168;2023-12-04T02:32:29;-5.00;99.90
22008;DHT22;11168;56.976;24.168;2023-12-04T02:34:59;-5.10;99.90
22008;DHT22;11168;56.976;24.168;2023-12-04T02:37:27;-5.10;99.90
22008;DHT22;11168;56.976;24.168;2023-12-04T02:39:55;-5.10;99.90
22008;DHT22;11168;56.976;24.168;2023-12-04T02:42:23;-5.10;99.90
22008;DHT22;11168;56.976;24.168;2023-12-04T02:44:52;-5.10;99.90
22008;DHT22;11168;56.976;24.168;2023-12-04T02:47:19;-5.00;99.90
22008;DHT22;11168;56.976;24.168;2023-12-04T02:49:47;-5.00;99.90
22008;DHT22;11168;56.976;24.168;2023-12-04T02:52:14;-5.00;99.90
22008;DHT22;11168;56.976;24.168;2023-12-04T02:54:41;-5.00;99.90
22008;DHT22;11168;56.976;24.168;2023-12-04T02:57:09;-4.90;99.90
22008;DHT22;11168;56.976;24.168;2023-12-04T02:59:36;-4.90;99.90
22008;DHT22;11168;56.976;24.168;2023-12-04T03:02:03;-4.90;99.90
22008;DHT22;11168;56.976;24.168;2023-12-04T03:04:31;-4.90;99.90
22008;DHT22;11168;56.976;24.168;2023-12-04T03:06:58;-4.90;99.90
22008;DHT22;11168;56.976;24.168;2023-12-04T03:09:28;-4.90;99.90
22008;DHT22;11168;56.976;24.168;2023-12-04T03:12:15;-4.90;99.90
22008;DHT22;11168;56.976;24.168;2023-12-04T03:14:42;-4.90;99.90
22008;DHT22;11168;56.976;24.168;2023-12-04T03:17:09;-4.90;99.90
22008;DHT22;11168;56.976;24.168;2023-12-04T03:19:37;-4.80;99.90
22008;DHT22;11168;56.976;24.168;2023-12-04T03:22:04;-4.80;99.90
22008;DHT22;11168;56.976;24.168;2023-12-04T03:24:31;-4.80;99.90
22008;DHT22;11168;56.976;24.168;2023-12-04T03:26:58;-4.90;99.90
22008;DHT22;11168;56.976;24.168;2023-12-04T03:29:25;-4.80;99.90
22008;DHT22;11168;56.976;24.168;2023-12-04T03:31:53;-4.80;99.90
22008;DHT22;11168;56.976;24.168;2023-12-04T03:34:20;-4.80;99.90
22008;DHT22;11168;56.976;24.168;2023-12-04T03:36:49;-4.80;99.90
22008;DHT22;11168;56.976;24.168;2023-12-04T03:39:18;-4.80;99.90
22008;DHT22;11168;56.976;24.168;2023-12-04T03:41:47;-4.90;99.90
22008;DHT22;11168;56.976;24.168;2023-12-04T03:44:16;-4.90;99.90
22008;DHT22;11168;56.976;24.168;2023-12-04T03:46:44;-4.90;99.90
22008;DHT22;11168;56.976;24.168;2023-12-04T03:49:11;-4.80;99.90
22008;DHT22;11168;56.976;24.168;2023-12-04T03:51:38;-4.90;99.90
22008;DHT22;11168;56.976;24.168;2023-12-04T03:54:05;-4.90;99.90
22008;DHT22;11168;56.976;24.168;2023-12-04T03:56:32;-4.80;99.90
22008;DHT22;11168;56.976;24.168;2023-12-04T03:58:59;-4.80;99.90
22008;DHT22;11168;56.976;24.168;2023-12-04T04:01:26;-4.90;99.90
22008;DHT22;11168;56.976;24.168;2023-12-04T04:03:53;-4.80;99.90
22008;DHT22;11168;56.976;24.168;2023-12-04T04:06:22;-4.80;99.90
22008;DHT22;11168;56.976;24.168;2023-12-04T04:08:49;-4.80;99.90
22008;DHT22;11168;56.976;24.168;2023-12-04T04:11:19;-4.80;99.90
22008;DHT22;11168;56.976;24.168;2023-12-04T04:13:46;-4.80;99.90
22008;DHT22;11168;56.976;24.168;2023-12-04T04:16:16;-4.80;99.90
22008;DHT22;11168;56.976;24.168;2023-12-04T04:18:43;-4.80;99.90
22008;DHT22;11168;56.976;24.168;2023-12-04T04:21:10;-4.80;99.90
22008;DHT22;11168;56.976;24.168;2023-12-04T04:23:37;-4.90;99.90
22008;DHT22;11168;56.976;24.168;2023-12-04T04:26:05;-4.90;99.90
22008;DHT22;11168;56.976;24.168;2023-12-04T04:28:32;-4.80;99.90
22008;DHT22;11168;56.976;24.168;2023-12-04T04:31:00;-4.80;99.90
22008;DHT22;11168;56.976;24.168;2023-12-04T04:33:27;-4.80;99.90
22008;DHT22;11168;56.976;24.168;2023-12-04T04:35:54;-4.80;99.90
22008;DHT22;11168;56.976;24.168;2023-12-04T04:38:22;-4.80;99.90
22008;DHT22;11168;56.976;24.168;2023-12-04T04:40:49;-4.80;99.90
22008;DHT22;11168;56.976;24.168;2023-12-04T04:43:16;-4.70;99.90
22008;DHT22;11168;56.976;24.168;2023-12-04T04:45:43;-4.80;99.90
22008;DHT22;11168;56.976;24.168;2023-12-04T04:48:11;-4.80;99.90
22008;DHT22;11168;56.976;24.168;2023-12-04T04:50:38;-4.70;99.90
22008;DHT22;11168;56.976;24.168;2023-12-04T04:53:07;-4.70;99.90
22008;DHT22;11168;56.976;24.168;2023-12-04T04:55:34;-4.70;99.90
22008;DHT22;11168;56.976;24.168;2023-12-04T04:58:15;-4.70;99.90
22008;DHT22;11168;56.976;24.168;2023-12-04T05:00:43;-4.70;99.90
22008;DHT22;11168;56.976;24.168;2023-12-04T05:03:11;-4.60;99.90
22008;DHT22;11168;56.976;24.168;2023-12-04T05:05:41;-4.60;99.90
22008;DHT22;11168;56.976;24.168;2023-12-04T05:08:08;-4.70;99.90
22008;DHT22;11168;56.976;24.168;2023-12-04T05:10:35;-4.70;99.90
22008;DHT22;11168;56.976;24.168;2023-12-04T05:13:05;-4.70;99.90
22008;DHT22;11168;56.976;24.168;2023-12-04T05:15:32;-4.70;99.90
22008;DHT22;11168;56.976;24.168;2023-12-04T05:18:00;-4.60;99.90
22008;DHT22;11168;56.976;24.168;2023-12-04T05:20:29;-4.70;99.90
22008;DHT22;11168;56.976;24.168;2023-12-04T05:22:59;-4.70;99.90
22008;DHT22;11168;56.976;24.168;2023-12-04T05:25:27;-4.60;99.90
22008;DHT22;11168;56.976;24.168;2023-12-04T05:28:03;-4.70;99.90
22008;DHT22;11168;56.976;24.168;2023-12-04T05:30:31;-4.70;99.90
22008;DHT22;11168;56.976;24.168;2023-12-04T05:32:59;-4.70;99.90
22008;DHT22;11168;56.976;24.168;2023-12-04T05:35:26;-4.70;99.90
22008;DHT22;11168;56.976;24.168;2023-12-04T05:37:56;-4.70;99.90
22008;DHT22;11168;56.976;24.168;2023-12-04T05:40:23;-4.60;99.90
22008;DHT22;11168;56.976;24.168;2023-12-04T05:42:50;-4.60;99.90
22008;DHT22;11168;56.976;24.168;2023-12-04T05:45:17;-4.60;99.90
22008;DHT22;11168;56.976;24.168;2023-12-04T05:47:44;-4.60;99.90
22008;DHT22;11168;56.976;24.168;2023-12-04T05:50:11;-4.50;99.90
22008;DHT22;11168;56.976;24.168;2023-12-04T05:52:38;-4.50;99.90
22008;DHT22;11168;56.976;24.168;2023-12-04T05:55:05;-4.60;99.90
22008;DHT22;11168;56.976;24.168;2023-12-04T05:57:32;-4.50;99.90
22008;DHT22;11168;56.976;24.168;2023-12-04T05:59:59;-4.50;99.90
22008;DHT22;11168;56.976;24.168;2023-12-04T06:02:27;-4.50;99.90
22008;DHT22;11168;56.976;24.168;2023-12-04T06:04:57;-4.40;99.90
22008;DHT22;11168;56.976;24.168;2023-12-04T06:07:24;-4.50;99.90
22008;DHT22;11168;56.976;24.168;2023-12-04T06:09:51;-4.50;99.90
22008;DHT22;11168;56.976;24.168;2023-12-04T06:12:19;-4.50;99.90
22008;DHT22;11168;56.976;24.168;2023-12-04T06:14:49;-4.50;99.90
22008;DHT22;11168;56.976;24.168;2023-12-04T06:17:17;-4.50;99.90
22008;DHT22;11168;56.976;24.168;2023-12-04T06:19:46;-4.50;99.90
22008;DHT22;11168;56.976;24.168;2023-12-04T06:22:14;-4.50;99.90
22008;DHT22;11168;56.976;24.168;2023-12-04T06:24:42;-4.60;99.90
22008;DHT22;11168;56.976;24.168;2023-12-04T06:27:15;-4.60;99.90
22008;DHT22;11168;56.976;24.168;2023-12-04T06:29:43;-4.60;99.90
22008;DHT22;11168;56.976;24.168;2023-12-04T06:32:11;-4.60;99.90
22008;DHT22;11168;56.976;24.168;2023-12-04T06:34:38;-4.60;99.90
22008;DHT22;11168;56.976;24.168;2023-12-04T06:37:13;-4.60;99.90
22008;DHT22;11168;56.976;24.168;2023-12-04T06:39:45;-4.60;99.90
22008;DHT22;11168;56.976;24.168;2023-12-04T06:42:14;-4.60;99.90
22008;DHT22;11168;56.976;24.168;2023-12-04T06:44:41;-4.70;99.90
22008;DHT22;11168;56.976;24.168;2023-12-04T06:47:08;-4.70;99.90
22008;DHT22;11168;56.976;24.168;2023-12-04T06:49:39;-4.70;99.90
22008;DHT22;11168;56.976;24.168;2023-12-04T06:52:07;-4.80;99.90
22008;DHT22;11168;56.976;24.168;2023-12-04T06:54:34;-4.80;99.90
22008;DHT22;11168;56.976;24.168;2023-12-04T06:57:03;-4.80;99.90
22008;DHT22;11168;56.976;24.168;2023-12-04T06:59:31;-4.80;99.90
22008;DHT22;11168;56.976;24.168;2023-12-04T07:01:59;-4.80;99.90
22008;DHT22;11168;56.976;24.168;2023-12-04T07:04:26;-4.90;99.90
22008;DHT22;11168;56.976;24.168;2023-12-04T07:06:53;-4.90;99.90
22008;DHT22;11168;56.976;24.168;2023-12-04T07:09:21;-4.90;99.90
22008;DHT22;11168;56.976;24.168;2023-12-04T07:11:48;-4.80;99.90
22008;DHT22;11168;56.976;24.168;2023-12-04T07:14:15;-4.80;99.90
22008;DHT22;11168;56.976;24.168;2023-12-04T07:16:42;-4.90;99.90
22008;DHT22;11168;56.976;24.168;2023-12-04T07:19:10;-4.80;99.90
22008;DHT22;11168;56.976;24.168;2023-12-04T07:21:38;-4.80;99.90
22008;DHT22;11168;56.976;24.168;2023-12-04T07:24:06;-4.80;99.90
22008;DHT22;11168;56.976;24.168;2023-12-04T07:26:34;-4.80;99.90
22008;DHT22;11168;56.976;24.168;2023-12-04T07:29:02;-4.80;99.90
22008;DHT22;11168;56.976;24.168;2023-12-04T07:31:30;-4.70;99.90
22008;DHT22;11168;56.976;24.168;2023-12-04T07:33:57;-4.70;99.90
22008;DHT22;11168;56.976;24.168;2023-12-04T07:36:28;-4.60;99.90
22008;DHT22;11168;56.976;24.168;2023-12-04T07:38:55;-4.60;99.90
22008;DHT22;11168;56.976;24.168;2023-12-04T07:41:22;-4.60;99.90
22008;DHT22;11168;56.976;24.168;2023-12-04T07:43:50;-4.60;99.90
22008;DHT22;11168;56.976;24.168;2023-12-04T07:46:18;-4.60;99.90
22008;DHT22;11168;56.976;24.168;2023-12-04T07:48:45;-4.60;99.90
22008;DHT22;11168;56.976;24.168;2023-12-04T07:51:13;-4.60;99.90
22008;DHT22;11168;56.976;24.168;2023-12-04T07:53:40;-4.50;99.90
22008;DHT22;11168;56.976;24.168;2023-12-04T07:56:07;-4.50;99.90
22008;DHT22;11168;56.976;24.168;2023-12-04T07:58:34;-4.40;99.90
22008;DHT22;11168;56.976;24.168;2023-12-04T08:01:01;-4.50;99.90
22008;DHT22;11168;56.976;24.168;2023-12-04T08:03:29;-4.50;99.90
22008;DHT22;11168;56.976;24.168;2023-12-04T08:05:56;-4.50;99.90
22008;DHT22;11168;56.976;24.168;2023-12-04T08:08:23;-4.40;99.90
22008;DHT22;11168;56.976;24.168;2023-12-04T08:10:51;-4.40;99.90
22008;DHT22;11168;56.976;24.168;2023-12-04T08:13:18;-4.40;99.90
22008;DHT22;11168;56.976;24.168;2023-12-04T08:15:45;-4.30;99.90
22008;DHT22;11168;56.976;24.168;2023-12-04T08:18:12;-4.20;99.90
22008;DHT22;11168;56.976;24.168;2023-12-04T08:20:39;-4.10;99.90
22008;DHT22;11168;56.976;24.168;2023-12-04T08:23:07;-4.10;99.90
22008;DHT22;11168;56.976;24.168;2023-12-04T08:25:35;-4.00;99.90
22008;DHT22;11168;56.976;24.168;2023-12-04T08:28:06;-3.90;99.90
22008;DHT22;11168;56.976;24.168;2023-12-04T08:30:36;-3.90;99.90
22008;DHT22;11168;56.976;24.168;2023-12-04T08:33:04;-3.80;99.90
22008;DHT22;11168;56.976;24.168;2023-12-04T08:35:31;-3.70;99.90
22008;DHT22;11168;56.976;24.168;2023-12-04T08:37:58;-3.60;99.90
22008;DHT22;11168;56.976;24.168;2023-12-04T08:40:30;-3.50;99.90
22008;DHT22;11168;56.976;24.168;2023-12-04T08:42:59;-3.50;99.90
22008;DHT22;11168;56.976;24.168;2023-12-04T08:45:26;-3.40;99.90
22008;DHT22;11168;56.976;24.168;2023-12-04T08:47:54;-3.40;99.90
22008;DHT22;11168;56.976;24.168;2023-12-04T08:50:25;-3.30;99.90
22008;DHT22;11168;56.976;24.168;2023-12-04T08:52:52;-3.20;99.90
22008;DHT22;11168;56.976;24.168;2023-12-04T08:55:19;-3.20;99.90
22008;DHT22;11168;56.976;24.168;2023-12-04T08:57:49;-3.00;99.90
22008;DHT22;11168;56.976;24.168;2023-12-04T09:00:19;-2.90;99.90
22008;DHT22;11168;56.976;24.168;2023-12-04T09:02:50;-2.80;99.90
22008;DHT22;11168;56.976;24.168;2023-12-04T09:05:32;-2.70;99.90
22008;DHT22;11168;56.976;24.168;2023-12-04T09:07:59;-2.60;99.90
22008;DHT22;11168;56.976;24.168;2023-12-04T09:10:48;-2.50;99.90
22008;DHT22;11168;56.976;24.168;2023-12-04T09:13:36;-1.60;99.90
22008;DHT22;11168;56.976;24.168;2023-12-04T09:16:03;-1.20;99.90
22008;DHT22;11168;56.976;24.168;2023-12-04T09:18:32;-0.60;99.90
22008;DHT22;11168;56.976;24.168;2023-12-04T09:20:59;-0.20;99.90
22008;DHT22;11168;56.976;24.168;2023-12-04T09:23:26;-0.30;99.90
22008;DHT22;11168;56.976;24.168;2023-12-04T09:25:54;-0.70;99.90
22008;DHT22;11168;56.976;24.168;2023-12-04T09:28:21;-0.70;99.90
22008;DHT22;11168;56.976;24.168;2023-12-04T09:30:49;-0.70;99.90
22008;DHT22;11168;56.976;24.168;2023-12-04T09:33:16;-0.20;99.90
22008;DHT22;11168;56.976;24.168;2023-12-04T09:35:43;-0.20;99.90
22008;DHT22;11168;56.976;24.168;2023-12-04T09:38:10;-0.60;99.90
22008;DHT22;11168;56.976;24.168;2023-12-04T09:40:38;-1.00;99.90
22008;DHT22;11168;56.976;24.168;2023-12-04T09:43:06;-1.20;99.90
22008;DHT22;11168;56.976;24.168;2023-12-04T09:45:34;-1.30;99.90
22008;DHT22;11168;56.976;24.168;2023-12-04T09:48:02;-1.40;99.90
22008;DHT22;11168;56.976;24.168;2023-12-04T09:50:29;-1.50;99.90
22008;DHT22;11168;56.976;24.168;2023-12-04T09:52:58;-1.60;99.90
22008;DHT22;11168;56.976;24.168;2023-12-04T09:55:26;-1.60;99.90
22008;DHT22;11168;56.976;24.168;2023-12-04T09:57:54;-1.70;99.90
22008;DHT22;11168;56.976;24.168;2023-12-04T10:00:23;-1.70;99.90
22008;DHT22;11168;56.976;24.168;2023-12-04T10:02:52;-1.70;99.90
22008;DHT22;11168;56.976;24.168;2023-12-04T10:05:20;-1.80;99.90
22008;DHT22;11168;56.976;24.168;2023-12-04T10:07:48;-1.80;99.90
22008;DHT22;11168;56.976;24.168;2023-12-04T10:10:17;-1.90;99.90
22008;DHT22;11168;56.976;24.168;2023-12-04T10:12:45;-1.80;99.90
22008;DHT22;11168;56.976;24.168;2023-12-04T10:15:12;-1.70;99.90
22008;DHT22;11168;56.976;24.168;2023-12-04T10:17:41;-1.70;99.90
22008;DHT22;11168;56.976;24.168;2023-12-04T10:20:14;-1.70;99.90
22008;DHT22;11168;56.976;24.168;2023-12-04T10:22:56;-1.60;99.90
22008;DHT22;11168;56.976;24.168;2023-12-04T10:25:28;-1.50;99.90
22008;DHT22;11168;56.976;24.168;2023-12-04T10:28:12;-1.50;99.90
22008;DHT22;11168;56.976;24.168;2023-12-04T10:30:40;-1.50;99.90
22008;DHT22;11168;56.976;24.168;2023-12-04T10:33:08;-1.50;99.90
22008;DHT22;11168;56.976;24.168;2023-12-04T10:35:37;-1.50;99.90
22008;DHT22;11168;56.976;24.168;2023-12-04T10:38:06;-1.40;99.90
22008;DHT22;11168;56.976;24.168;2023-12-04T10:40:36;-1.40;99.90
22008;DHT22;11168;56.976;24.168;2023-12-04T10:43:09;-1.40;99.90
22008;DHT22;11168;56.976;24.168;2023-12-04T10:45:40;-1.40;99.90
22008;DHT22;11168;56.976;24.168;2023-12-04T10:48:10;-1.40;99.90
22008;DHT22;11168;56.976;24.168;2023-12-04T10:50:40;-1.50;99.90
22008;DHT22;11168;56.976;24.168;2023-12-04T10:53:09;-1.50;99.90
22008;DHT22;11168;56.976;24.168;2023-12-04T10:55:37;-1.40;99.90
22008;DHT22;11168;56.976;24.168;2023-12-04T10:58:14;-1.30;99.90
22008;DHT22;11168;56.976;24.168;2023-12-04T11:00:47;-1.10;99.90
22008;DHT22;11168;56.976;24.168;2023-12-04T11:03:21;-0.70;99.90
22008;DHT22;11168;56.976;24.168;2023-12-04T11:05:56;0.10;99.90
22008;DHT22;11168;56.976;24.168;2023-12-04T11:08:29;0.80;99.90
22008;DHT22;11168;56.976;24.168;2023-12-04T11:11:04;1.60;99.90
22008;DHT22;11168;56.976;24.168;2023-12-04T11:13:41;1.50;99.90
22008;DHT22;11168;56.976;24.168;2023-12-04T11:16:38;1.70;99.90
22008;DHT22;11168;56.976;24.168;2023-12-04T11:19:29;1.40;99.90
22008;DHT22;11168;56.976;24.168;2023-12-04T11:21:59;1.00;99.90
22008;DHT22;11168;56.976;24.168;2023-12-04T11:24:27;0.90;99.90
22008;DHT22;11168;56.976;24.168;2023-12-04T11:26:55;0.70;99.90
22008;DHT22;11168;56.976;24.168;2023-12-04T11:29:23;0.60;99.90
22008;DHT22;11168;56.976;24.168;2023-12-04T11:31:51;0.50;99.90
22008;DHT22;11168;56.976;24.168;2023-12-04T11:34:18;0.30;99.90
22008;DHT22;11168;56.976;24.168;2023-12-04T11:36:51;0.30;99.90
22008;DHT22;11168;56.976;24.168;2023-12-04T11:39:19;0.30;99.90
22008;DHT22;11168;56.976;24.168;2023-12-04T11:41:46;0.30;99.90
22008;DHT22;11168;56.976;24.168;2023-12-04T11:44:16;0.10;99.90
22008;DHT22;11168;56.976;24.168;2023-12-04T11:47:17;-0.20;99.90
22008;DHT22;11168;56.976;24.168;2023-12-04T11:49:45;-0.40;99.90
22008;DHT22;11168;56.976;24.168;2023-12-04T11:52:12;-0.60;99.90
22008;DHT22;11168;56.976;24.168;2023-12-04T11:54:57;-0.70;99.90
22008;DHT22;11168;56.976;24.168;2023-12-04T11:57:42;-0.80;99.90
22008;DHT22;11168;56.976;24.168;2023-12-04T12:05:41;-0.80;99.90
22008;DHT22;11168;56.976;24.168;2023-12-04T12:08:09;-0.90;99.90
22008;DHT22;11168;56.976;24.168;2023-12-04T12:10:37;-1.00;99.90
22008;DHT22;11168;56.976;24.168;2023-12-04T12:13:04;-1.10;99.90
22008;DHT22;11168;56.976;24.168;2023-12-04T12:15:33;-1.20;99.90
22008;DHT22;11168;56.976;24.168;2023-12-04T12:18:01;-1.20;99.90
22008;DHT22;11168;56.976;24.168;2023-12-04T12:20:28;-1.30;99.90
22008;DHT22;11168;56.976;24.168;2023-12-04T12:22:58;-1.50;99.90
22008;DHT22;11168;56.976;24.168;2023-12-04T12:25:25;-1.60;99.90
22008;DHT22;11168;56.976;24.168;2023-12-04T12:27:53;-1.70;99.90
22008;DHT22;11168;56.976;24.168;2023-12-04T12:30:21;-1.70;99.90
22008;DHT22;11168;56.976;24.168;2023-12-04T12:32:50;-1.80;99.90
22008;DHT22;11168;56.976;24.168;2023-12-04T12:35:17;-1.70;99.90
22008;DHT22;11168;56.976;24.168;2023-12-04T12:37:44;-1.80;99.90
22008;DHT22;11168;56.976;24.168;2023-12-04T12:40:11;-1.80;99.90
22008;DHT22;11168;56.976;24.168;2023-12-04T12:42:39;-1.80;99.90
22008;DHT22;11168;56.976;24.168;2023-12-04T12:45:09;-1.80;99.90
22008;DHT22;11168;56.976;24.168;2023-12-04T12:47:42;-1.90;99.90
22008;DHT22;11168;56.976;24.168;2023-12-04T12:50:12;-1.90;99.90
22008;DHT22;11168;56.976;24.168;2023-12-04T12:52:42;-1.90;99.90
22008;DHT22;11168;56.976;24.168;2023-12-04T12:55:10;-1.90;99.90
22008;DHT22;11168;56.976;24.168;2023-12-04T12:57:38;-2.00;99.90
22008;DHT22;11168;56.976;24.168;2023-12-04T13:00:06;-2.00;99.90
22008;DHT22;11168;56.976;24.168;2023-12-04T13:02:37;-2.00;99.90
22008;DHT22;11168;56.976;24.168;2023-12-04T13:05:06;-2.10;99.90
22008;DHT22;11168;56.976;24.168;2023-12-04T13:07:36;-2.10;99.90
22008;DHT22;11168;56.976;24.168;2023-12-04T13:10:03;-2.20;99.90
22008;DHT22;11168;56.976;24.168;2023-12-04T13:12:32;-2.10;99.90
22008;DHT22;11168;56.976;24.168;2023-12-04T13:15:00;-2.10;99.90
22008;DHT22;11168;56.976;24.168;2023-12-04T13:17:27;-2.10;99.90
22008;DHT22;11168;56.976;24.168;2023-12-04T13:19:58;-2.20;99.90
22008;DHT22;11168;56.976;24.168;2023-12-04T13:22:26;-2.10;99.90
22008;DHT22;11168;56.976;24.168;2023-12-04T13:24:54;-2.10;99.90
22008;DHT22;11168;56.976;24.168;2023-12-04T13:27:21;-2.10;99.90
22008;DHT22;11168;56.976;24.168;2023-12-04T13:29:48;-2.10;99.90
22008;DHT22;11168;56.976;24.168;2023-12-04T13:32:19;-2.10;99.90
22008;DHT22;11168;56.976;24.168;2023-12-04T13:34:47;-2.10;99.90
22008;DHT22;11168;56.976;24.168;2023-12-04T13:37:14;-2.10;99.90
22008;DHT22;11168;56.976;24.168;2023-12-04T13:39:42;-2.10;99.90
22008;DHT22;11168;56.976;24.168;2023-12-04T13:42:19;-2.20;99.90
22008;DHT22;11168;56.976;24.168;2023-12-04T13:45:05;-2.10;99.90
22008;DHT22;11168;56.976;24.168;2023-12-04T13:47:36;-2.10;99.90
22008;DHT22;11168;56.976;24.168;2023-12-04T13:50:07;-2.10;99.90
22008;DHT22;11168;56.976;24.168;2023-12-04T13:52:38;-2.10;99.90
22008;DHT22;11168;56.976;24.168;2023-12-04T13:55:06;-2.20;99.90
22008;DHT22;11168;56.976;24.168;2023-12-04T13:57:47;-2.20;99.90
22008;DHT22;11168;56.976;24.168;2023-12-04T14:00:41;-2.20;99.90
22008;DHT22;11168;56.976;24.168;2023-12-04T14:03:10;-2.20;99.90
22008;DHT22;11168;56.976;24.168;2023-12-04T14:05:37;-2.20;99.90
22008;DHT22;11168;56.976;24.168;2023-12-04T14:08:06;-2.20;99.90
22008;DHT22;11168;56.976;24.168;2023-12-04T14:10:33;-2.20;99.90
22008;DHT22;11168;56.976;24.168;2023-12-04T14:13:01;-2.20;99.90
22008;DHT22;11168;56.976;24.168;2023-12-04T14:15:28;-2.20;99.90
22008;DHT22;11168;56.976;24.168;2023-12-04T14:17:55;-2.30;99.90
22008;DHT22;11168;56.976;24.168;2023-12-04T14:20:24;-2.30;99.90
22008;DHT22;11168;56.976;24.168;2023-12-04T14:22:52;-2.40;99.90
22008;DHT22;11168;56.976;24.168;2023-12-04T14:25:20;-2.40;99.90
22008;DHT22;11168;56.976;24.168;2023-12-04T14:27:47;-2.30;99.90
22008;DHT22;11168;56.976;24.168;2023-12-04T14:30:14;-2.40;99.90
22008;DHT22;11168;56.976;24.168;2023-12-04T14:32:41;-2.30;99.90
22008;DHT22;11168;56.976;24.168;2023-12-04T14:35:14;-2.40;99.90
22008;DHT22;11168;56.976;24.168;2023-12-04T14:37:42;-2.30;99.90
22008;DHT22;11168;56.976;24.168;2023-12-04T14:40:12;-2.40;99.90
22008;DHT22;11168;56.976;24.168;2023-12-04T14:42:42;-2.40;99.90
22008;DHT22;11168;56.976;24.168;2023-12-04T14:45:10;-2.40;99.90
22008;DHT22;11168;56.976;24.168;2023-12-04T14:47:37;-2.40;99.90
22008;DHT22;11168;56.976;24.168;2023-12-04T14:50:04;-2.40;99.90
22008;DHT22;11168;56.976;24.168;2023-12-04T14:52:33;-2.40;99.90
22008;DHT22;11168;56.976;24.168;2023-12-04T14:55:02;-2.40;99.90
22008;DHT22;11168;56.976;24.168;2023-12-04T14:57:54;-2.40;99.90
22008;DHT22;11168;56.976;24.168;2023-12-04T15:00:40;-2.40;99.90
22008;DHT22;11168;56.976;24.168;2023-12-04T15:03:40;-2.50;99.90
22008;DHT22;11168;56.976;24.168;2023-12-04T15:06:40;-2.50;99.90
22008;DHT22;11168;56.976;24.168;2023-12-04T15:09:27;-2.50;99.90
22008;DHT22;11168;56.976;24.168;2023-12-04T15:11:57;-2.60;99.90
22008;DHT22;11168;56.976;24.168;2023-12-04T15:14:30;-2.60;99.90
22008;DHT22;11168;56.976;24.168;2023-12-04T15:17:15;-2.60;99.90
22008;DHT22;11168;56.976;24.168;2023-12-04T15:19:56;-2.60;99.90
22008;DHT22;11168;56.976;24.168;2023-12-04T15:22:29;-2.60;99.90
22008;DHT22;11168;56.976;24.168;2023-12-04T15:24:59;-2.60;99.90
22008;DHT22;11168;56.976;24.168;2023-12-04T15:27:26;-2.60;99.90
22008;DHT22;11168;56.976;24.168;2023-12-04T15:29:53;-2.70;99.90
22008;DHT22;11168;56.976;24.168;2023-12-04T15:32:21;-2.70;99.90
22008;DHT22;11168;56.976;24.168;2023-12-04T15:34:48;-2.70;99.90
22008;DHT22;11168;56.976;24.168;2023-12-04T15:37:17;-2.70;99.90